createdAt,value
2023-02-17T00:01:28.390Z,21.47
2023-02-17T00:03:55.206Z,21.27
2023-02-17T00:06:24.552Z,20.37
2023-02-17T00:08:51.796Z,19.63
2023-02-17T00:11:18.998Z,21.60
2023-02-17T00:13:46.113Z,20.60
2023-02-17T00:16:19.325Z,20.87
2023-02-17T00:18:46.952Z,21.93
2023-02-17T00:21:23.255Z,20.30
2023-02-17T00:23:51.062Z,20.67
2023-02-17T00:26:19.115Z,20.50
2023-02-17T00:28:46.707Z,20.23
2023-02-17T00:31:16.551Z,20.10
2023-02-17T00:33:43.181Z,20.25
2023-02-17T00:36:15.424Z,20.97
2023-02-17T00:38:42.081Z,21.77
2023-02-17T00:41:08.658Z,19.37
2023-02-17T00:43:35.462Z,19.57
2023-02-17T00:46:04.408Z,20.13
2023-02-17T00:48:32.112Z,20.10
2023-02-17T00:50:58.880Z,20.07
2023-02-17T00:53:25.544Z,19.80
2023-02-17T00:55:53.355Z,20.13
2023-02-17T00:58:19.958Z,18.90
2023-02-17T01:00:46.813Z,20.40
2023-02-17T01:03:13.720Z,19.50
2023-02-17T01:05:44.676Z,19.43
2023-02-17T01:08:12.031Z,18.57
2023-02-17T01:10:40.631Z,19.90
2023-02-17T01:13:07.943Z,18.80
2023-02-17T01:15:49.950Z,18.87
2023-02-17T01:18:18.143Z,18.10
2023-02-17T01:20:44.819Z,18.43
2023-02-17T01:23:12.656Z,19.00
2023-02-17T01:25:40.655Z,18.57
2023-02-17T01:28:08.527Z,19.03
2023-02-17T01:30:36.228Z,18.30
2023-02-17T01:33:02.971Z,18.57
2023-02-17T01:35:29.526Z,19.00
2023-02-17T01:37:56.210Z,17.97
2023-02-17T01:40:22.825Z,18.13
2023-02-17T01:42:49.331Z,17.80
2023-02-17T01:45:19.085Z,18.07
2023-02-17T01:47:54.296Z,18.90
2023-02-17T01:50:26.104Z,18.70
2023-02-17T01:52:54.490Z,17.60
2023-02-17T01:55:23.488Z,17.47
2023-02-17T01:57:53.984Z,17.43
2023-02-17T02:00:22.063Z,17.13
2023-02-17T02:02:50.444Z,17.60
2023-02-17T02:05:19.790Z,17.57
2023-02-17T02:07:48.478Z,19.03
2023-02-17T02:10:17.022Z,17.90
2023-02-17T02:12:44.384Z,16.73
2023-02-17T02:15:15.401Z,19.37
2023-02-17T02:17:51.033Z,18.60
2023-02-17T02:20:43.983Z,19.10
2023-02-17T02:23:34.586Z,17.63
2023-02-17T02:26:15.058Z,17.10
2023-02-17T02:29:02.148Z,18.45
2023-02-17T02:31:35.546Z,17.67
2023-02-17T02:34:30.614Z,18.00
2023-02-17T02:37:13.034Z,17.27
2023-02-17T02:39:44.614Z,17.43
2023-02-17T02:42:14.837Z,17.97
2023-02-17T02:44:41.617Z,17.52
2023-02-17T02:47:36.254Z,18.07
2023-02-17T02:50:03.162Z,17.00
2023-02-17T02:52:38.513Z,18.17
2023-02-17T02:55:38.332Z,16.43
2023-02-17T02:58:20.956Z,16.50
2023-02-17T03:01:05.841Z,17.53
2023-02-17T03:03:48.748Z,17.47
2023-02-17T03:06:46.793Z,18.53
2023-02-17T03:09:19.659Z,18.10
2023-02-17T03:11:47.689Z,17.70
2023-02-17T03:14:18.055Z,18.13
2023-02-17T03:16:45.510Z,18.52
2023-02-17T03:19:14.090Z,17.60
2023-02-17T03:22:08.535Z,17.67
2023-02-17T03:24:35.947Z,16.87
2023-02-17T03:27:02.887Z,16.13
2023-02-17T03:29:29.532Z,16.87
2023-02-17T03:31:56.351Z,16.70
2023-02-17T03:34:23.008Z,16.60
2023-02-17T03:36:49.704Z,17.03
2023-02-17T03:39:17.018Z,16.37
2023-02-17T03:41:43.596Z,16.13
2023-02-17T03:44:10.135Z,17.63
2023-02-17T03:46:40.536Z,16.87
2023-02-17T03:49:07.149Z,18.05
2023-02-17T03:51:33.787Z,16.43
2023-02-17T03:54:00.544Z,17.77
2023-02-17T03:56:27.343Z,16.97
2023-02-17T03:58:54.163Z,16.77
2023-02-17T04:01:21.074Z,17.07
2023-02-17T04:03:47.901Z,17.20
2023-02-17T04:06:14.749Z,17.57
2023-02-17T04:08:41.425Z,17.10
2023-02-17T04:11:09.839Z,17.27
2023-02-17T04:13:38.306Z,16.17
2023-02-17T04:16:07.885Z,16.57
2023-02-17T04:18:35.872Z,16.38
2023-02-17T04:21:03.075Z,15.70
2023-02-17T04:23:29.598Z,15.80
2023-02-17T04:25:56.201Z,16.20
2023-02-17T04:28:23.192Z,16.17
2023-02-17T04:30:51.170Z,16.23
2023-02-17T04:33:18.267Z,15.90
2023-02-17T04:35:44.940Z,15.70
2023-02-17T04:38:11.746Z,15.47
2023-02-17T04:40:38.787Z,15.30
2023-02-17T04:43:05.779Z,16.00
2023-02-17T04:45:32.566Z,14.83
2023-02-17T04:47:59.179Z,15.43
2023-02-17T04:50:33.846Z,14.93
2023-02-17T04:53:00.634Z,15.27
2023-02-17T04:55:27.310Z,15.77
2023-02-17T04:57:53.947Z,16.47
2023-02-17T05:00:20.938Z,15.80
2023-02-17T05:02:47.536Z,15.23
2023-02-17T05:05:15.624Z,16.47
2023-02-17T05:07:43.188Z,16.67
2023-02-17T05:10:11.056Z,18.57
2023-02-17T05:12:37.995Z,21.23
2023-02-17T05:15:04.966Z,19.87
2023-02-17T05:17:31.815Z,28.00
2023-02-17T05:19:58.582Z,19.47
2023-02-17T05:22:25.899Z,22.70
2023-02-17T05:24:53.233Z,19.07
2023-02-17T05:27:20.337Z,18.30
2023-02-17T05:29:47.065Z,20.83
2023-02-17T05:32:13.635Z,19.23
2023-02-17T05:34:40.254Z,20.37
2023-02-17T05:37:06.782Z,21.07
2023-02-17T05:39:33.380Z,17.90
2023-02-17T05:42:00.032Z,20.40
2023-02-17T05:44:27.084Z,18.37
2023-02-17T05:46:53.885Z,15.80
2023-02-17T05:49:20.470Z,18.73
2023-02-17T05:51:47.028Z,18.77
2023-02-17T05:54:13.617Z,14.83
2023-02-17T05:56:40.193Z,15.23
2023-02-17T05:59:06.858Z,14.87
2023-02-17T06:01:33.555Z,14.43
2023-02-17T06:04:00.132Z,12.07
2023-02-17T06:06:27.798Z,13.33
2023-02-17T06:08:54.368Z,13.20
2023-02-17T06:11:21.145Z,12.73
2023-02-17T06:13:47.855Z,12.13
2023-02-17T06:16:14.468Z,13.23
2023-02-17T06:18:41.123Z,12.77
2023-02-17T06:21:07.792Z,12.03
2023-02-17T06:23:34.412Z,12.87
2023-02-17T06:26:01.043Z,13.43
2023-02-17T06:28:27.718Z,14.00
2023-02-17T06:30:54.422Z,12.80
2023-02-17T06:33:21.296Z,13.60
2023-02-17T06:35:49.895Z,13.07
2023-02-17T06:38:16.612Z,14.00
2023-02-17T06:40:43.835Z,12.93
2023-02-17T06:43:10.565Z,13.37
2023-02-17T06:45:37.146Z,13.00
2023-02-17T06:48:03.939Z,13.73
2023-02-17T06:50:30.481Z,15.73
2023-02-17T06:52:57.083Z,16.87
2023-02-17T06:55:23.761Z,17.03
2023-02-17T06:57:50.393Z,13.80
2023-02-17T07:00:17.396Z,14.67
2023-02-17T07:02:44.154Z,14.57
2023-02-17T07:05:18.856Z,14.50
2023-02-17T07:07:46.581Z,14.13
2023-02-17T07:10:13.826Z,13.37
2023-02-17T07:12:40.619Z,13.93
2023-02-17T07:15:10.774Z,13.67
2023-02-17T07:17:38.520Z,14.13
2023-02-17T07:20:05.838Z,13.70
2023-02-17T07:22:32.395Z,13.30
2023-02-17T07:24:58.952Z,12.50
2023-02-17T07:27:25.851Z,13.10
2023-02-17T07:29:52.424Z,13.87
2023-02-17T07:32:19.980Z,12.20
2023-02-17T07:34:47.011Z,12.90
2023-02-17T07:37:13.640Z,12.53
2023-02-17T07:39:40.184Z,13.10
2023-02-17T07:42:07.321Z,14.10
2023-02-17T07:44:33.928Z,13.03
2023-02-17T07:47:00.646Z,13.20
2023-02-17T07:49:27.270Z,12.37
2023-02-17T07:51:53.886Z,12.50
2023-02-17T07:54:20.621Z,13.17
2023-02-17T07:56:47.368Z,12.77
2023-02-17T07:59:14.928Z,11.63
2023-02-17T08:01:42.160Z,13.17
2023-02-17T08:04:08.790Z,12.30
2023-02-17T08:06:37.526Z,12.90
2023-02-17T08:09:22.803Z,11.67
2023-02-17T08:12:24.754Z,13.33
2023-02-17T08:14:51.326Z,12.23
2023-02-17T08:17:18.021Z,11.47
2023-02-17T08:19:48.837Z,11.90
2023-02-17T08:22:17.344Z,12.20
2023-02-17T08:24:44.692Z,11.97
2023-02-17T08:27:11.524Z,12.07
2023-02-17T08:29:39.132Z,11.77
2023-02-17T08:32:06.065Z,11.77
2023-02-17T08:34:35.942Z,11.50
2023-02-17T08:37:05.533Z,10.90
2023-02-17T08:39:33.386Z,10.55
2023-02-17T08:42:00.206Z,10.77
2023-02-17T08:44:26.933Z,11.43
2023-02-17T08:46:53.990Z,11.23
2023-02-17T08:49:25.078Z,10.57
2023-02-17T08:51:52.321Z,10.53
2023-02-17T08:54:19.177Z,10.57
2023-02-17T08:56:45.992Z,9.73
2023-02-17T08:59:12.984Z,10.07
2023-02-17T09:01:40.747Z,10.07
2023-02-17T09:04:09.869Z,10.60
2023-02-17T09:06:44.064Z,10.10
2023-02-17T09:09:13.561Z,10.70
2023-02-17T09:11:40.539Z,10.25
2023-02-17T09:14:07.641Z,9.70
2023-02-17T09:16:34.694Z,10.17
2023-02-17T09:19:01.545Z,10.30
2023-02-17T09:21:28.297Z,10.50
2023-02-17T09:24:05.496Z,10.50
2023-02-17T09:26:37.182Z,10.47
2023-02-17T09:29:09.340Z,10.07
2023-02-17T09:31:37.261Z,10.57
2023-02-17T09:34:05.085Z,10.33
2023-02-17T09:36:34.487Z,9.93
2023-02-17T09:39:04.027Z,10.20
2023-02-17T09:41:39.704Z,10.15
2023-02-17T09:44:16.651Z,9.90
2023-02-17T09:47:01.864Z,9.63
2023-02-17T09:49:37.084Z,9.13
2023-02-17T09:52:27.180Z,9.90
2023-02-17T09:55:05.774Z,9.20
2023-02-17T09:58:03.415Z,9.33
2023-02-17T10:00:35.399Z,9.60
2023-02-17T10:03:16.570Z,9.53
2023-02-17T10:05:51.471Z,10.10
2023-02-17T10:08:24.121Z,8.57
2023-02-17T10:11:27.138Z,9.10
2023-02-17T10:13:57.439Z,8.77
2023-02-17T10:16:31.343Z,8.63
2023-02-17T10:19:02.622Z,9.30
2023-02-17T10:21:35.684Z,8.90
2023-02-17T10:24:02.285Z,8.90
2023-02-17T10:26:55.693Z,8.70
2023-02-17T10:29:46.227Z,8.83
2023-02-17T10:32:37.913Z,8.90
2023-02-17T10:35:18.560Z,8.97
2023-02-17T10:37:47.330Z,9.60
2023-02-17T10:40:20.019Z,8.57
2023-02-17T10:42:48.589Z,8.97
2023-02-17T10:45:35.524Z,8.97
2023-02-17T10:48:12.430Z,8.70
2023-02-17T10:50:42.415Z,9.87
2023-02-17T10:53:22.748Z,8.55
2023-02-17T10:56:11.760Z,8.73
2023-02-17T10:58:52.345Z,9.40
2023-02-17T11:01:19.460Z,9.00
2023-02-17T11:03:47.135Z,9.40
2023-02-17T11:06:23.466Z,9.43
2023-02-17T11:08:54.388Z,9.10
2023-02-17T11:11:25.791Z,9.37
2023-02-17T11:14:06.300Z,9.73
2023-02-17T11:16:45.741Z,9.97
2023-02-17T11:19:24.276Z,10.50
2023-02-17T11:21:53.623Z,9.23
2023-02-17T11:24:20.491Z,8.90
2023-02-17T11:27:24.057Z,9.63
2023-02-17T11:29:51.538Z,9.30
2023-02-17T11:32:20.092Z,8.83
2023-02-17T11:34:57.394Z,8.03
2023-02-17T11:37:28.828Z,7.47
2023-02-17T11:39:55.859Z,8.30
2023-02-17T11:42:31.667Z,8.03
2023-02-17T11:45:00.702Z,8.97
2023-02-17T11:48:06.532Z,8.73
2023-02-17T11:50:41.240Z,7.67
2023-02-17T11:53:28.285Z,8.63
2023-02-17T11:56:13.330Z,8.20
2023-02-17T11:58:58.339Z,8.33
2023-02-17T12:02:03.077Z,9.30
2023-02-17T12:04:42.210Z,9.13
2023-02-17T12:07:11.835Z,8.83
2023-02-17T12:09:48.156Z,10.13
2023-02-17T12:12:44.672Z,9.27
2023-02-17T12:15:29.372Z,10.53
2023-02-17T12:18:24.007Z,10.20
2023-02-17T12:21:08.537Z,9.63
2023-02-17T12:23:58.436Z,9.23
2023-02-17T12:26:37.122Z,8.85
2023-02-17T12:29:30.828Z,9.33
2023-02-17T12:32:13.835Z,8.20
2023-02-17T12:35:13.649Z,8.30
2023-02-17T12:37:52.032Z,7.50
2023-02-17T12:40:50.700Z,8.60
2023-02-17T12:43:17.267Z,7.40
2023-02-17T12:45:48.316Z,8.40
2023-02-17T12:48:28.448Z,8.43
2023-02-17T12:51:02.976Z,7.53
2023-02-17T12:53:42.359Z,7.90
2023-02-17T12:56:38.432Z,7.88
2023-02-17T12:59:21.984Z,7.87
2023-02-17T13:02:00.780Z,7.53
2023-02-17T13:04:30.021Z,7.90
2023-02-17T13:07:23.594Z,8.40
2023-02-17T13:09:51.781Z,8.57
2023-02-17T13:12:34.828Z,8.13
2023-02-17T13:15:06.444Z,8.20
2023-02-17T13:17:52.117Z,8.23
2023-02-17T13:20:18.643Z,7.60
2023-02-17T13:22:45.356Z,7.57
2023-02-17T13:25:14.491Z,7.83
2023-02-17T13:27:41.297Z,8.20
2023-02-17T13:30:29.359Z,8.20
2023-02-17T13:33:15.512Z,8.00
2023-02-17T13:35:42.102Z,7.63
2023-02-17T13:38:10.428Z,8.07
2023-02-17T13:40:40.681Z,7.30
2023-02-17T13:45:56.903Z,7.40
2023-02-17T13:48:29.620Z,7.88
2023-02-17T13:50:59.004Z,7.40
2023-02-17T13:53:25.663Z,7.45
2023-02-17T13:55:54.392Z,7.57
2023-02-17T13:58:28.408Z,7.77
2023-02-17T14:00:57.127Z,8.40
2023-02-17T14:03:26.408Z,7.90
2023-02-17T14:05:56.540Z,8.38
2023-02-17T14:08:32.296Z,8.60
2023-02-17T14:11:08.711Z,8.37
2023-02-17T14:13:38.820Z,8.40
2023-02-17T14:18:44.367Z,7.90
2023-02-17T14:21:23.838Z,8.33
2023-02-17T14:23:53.825Z,8.32
2023-02-17T14:26:35.548Z,8.23
2023-02-17T14:29:05.373Z,9.00
2023-02-17T14:31:58.248Z,8.50
2023-02-17T14:34:34.001Z,9.03
2023-02-17T14:37:40.038Z,9.33
2023-02-17T14:40:15.879Z,8.83
2023-02-17T14:42:42.537Z,8.27
2023-02-17T14:45:09.511Z,7.63
2023-02-17T14:47:36.099Z,7.13
2023-02-17T14:50:02.737Z,7.60
2023-02-17T14:52:29.685Z,7.13
2023-02-17T14:55:00.039Z,8.07
2023-02-17T14:57:27.843Z,7.20
2023-02-17T14:59:57.661Z,7.10
2023-02-17T15:02:24.640Z,7.38
2023-02-17T15:04:51.307Z,7.50
2023-02-17T15:07:18.834Z,7.40
2023-02-17T15:09:47.309Z,7.00
2023-02-17T15:12:17.151Z,7.30
2023-02-17T15:14:44.212Z,7.05
2023-02-17T15:17:13.170Z,7.37
2023-02-17T15:19:39.849Z,7.40
2023-02-17T15:22:07.146Z,7.87
2023-02-17T15:24:35.172Z,6.67
2023-02-17T15:27:03.600Z,7.10
2023-02-17T15:29:30.594Z,6.97
2023-02-17T15:32:00.487Z,7.33
2023-02-17T15:34:31.949Z,7.30
2023-02-17T15:37:00.046Z,7.20
2023-02-17T15:39:26.870Z,6.93
2023-02-17T15:41:55.847Z,6.97
2023-02-17T15:44:39.773Z,6.93
2023-02-17T15:47:12.319Z,7.03
2023-02-17T15:49:38.861Z,7.10
2023-02-17T15:52:12.722Z,8.30
2023-02-17T15:54:46.339Z,8.63
2023-02-17T15:57:22.130Z,8.80
2023-02-17T15:59:49.088Z,10.13
2023-02-17T16:02:22.330Z,8.80
2023-02-17T16:04:50.281Z,9.50
2023-02-17T16:07:16.849Z,9.00
2023-02-17T16:09:44.665Z,9.33
2023-02-17T16:12:27.159Z,9.90
2023-02-17T16:14:56.925Z,10.27
2023-02-17T16:17:23.700Z,9.70
2023-02-17T16:19:50.341Z,9.40
2023-02-17T16:22:17.056Z,9.37
2023-02-17T16:24:46.616Z,9.17
2023-02-17T16:27:16.764Z,8.52
2023-02-17T16:32:12.911Z,7.30
2023-02-17T16:34:42.029Z,7.40
2023-02-17T16:37:16.079Z,7.27
2023-02-17T16:39:43.664Z,7.00
2023-02-17T16:42:12.286Z,7.27
2023-02-17T16:44:39.176Z,7.10
2023-02-17T16:47:08.121Z,6.87
2023-02-17T16:49:39.025Z,6.70
2023-02-17T16:52:21.344Z,8.23
2023-02-17T16:54:47.997Z,8.83
2023-02-17T16:57:19.826Z,9.43
2023-02-17T16:59:46.971Z,7.97
2023-02-17T17:02:14.361Z,10.33
2023-02-17T17:04:41.109Z,9.13
2023-02-17T17:07:08.179Z,7.40
2023-02-17T17:09:34.839Z,6.80
2023-02-17T17:12:01.606Z,6.80
2023-02-17T17:14:28.233Z,6.53
2023-02-17T17:17:01.063Z,6.00
2023-02-17T17:19:27.827Z,5.93
2023-02-17T17:21:54.469Z,6.77
2023-02-17T17:24:21.889Z,6.60
2023-02-17T17:26:51.314Z,6.43
2023-02-17T17:29:19.384Z,7.38
2023-02-17T17:31:46.723Z,7.53
2023-02-17T17:34:13.558Z,7.07
2023-02-17T17:36:45.909Z,7.50
2023-02-17T17:39:18.756Z,7.17
2023-02-17T17:41:45.908Z,6.40
2023-02-17T17:44:12.470Z,7.47
2023-02-17T17:46:40.254Z,7.17
2023-02-17T17:49:10.386Z,6.40
2023-02-17T17:54:06.249Z,6.50
2023-02-17T17:56:36.217Z,6.53
2023-02-17T17:59:03.891Z,6.30
2023-02-17T18:01:31.444Z,6.63
2023-02-17T18:04:00.436Z,6.17
2023-02-17T18:06:30.454Z,6.30
2023-02-17T18:09:02.346Z,6.78
2023-02-17T18:11:29.421Z,6.33
2023-02-17T18:13:59.890Z,6.30
2023-02-17T18:16:27.990Z,7.27
2023-02-17T18:18:55.892Z,7.50
2023-02-17T18:21:22.507Z,7.93
2023-02-17T18:23:49.252Z,7.70
2023-02-17T18:26:17.153Z,7.03
2023-02-17T18:28:43.848Z,7.20
2023-02-17T18:31:12.914Z,7.87
2023-02-17T18:33:39.745Z,8.03
2023-02-17T18:36:12.508Z,7.77
2023-02-17T18:38:40.753Z,9.53
2023-02-17T18:41:07.610Z,8.40
2023-02-17T18:43:34.926Z,8.97
2023-02-17T18:46:01.603Z,8.47
2023-02-17T18:48:28.370Z,7.70
2023-02-17T18:50:54.928Z,7.13
2023-02-17T18:53:24.697Z,7.07
2023-02-17T18:55:51.395Z,7.05
2023-02-17T18:58:17.968Z,6.70
2023-02-17T19:00:44.739Z,7.13
2023-02-17T19:03:11.428Z,7.70
2023-02-17T19:05:38.017Z,6.27
2023-02-17T19:08:05.011Z,6.33
2023-02-17T19:10:33.380Z,7.10
2023-02-17T19:13:00.011Z,6.67
2023-02-17T19:15:27.687Z,8.07
2023-02-17T19:17:57.996Z,7.13
2023-02-17T19:22:54.808Z,6.50
2023-02-17T19:25:21.711Z,6.40
2023-02-17T19:27:48.328Z,6.10
2023-02-17T19:30:15.533Z,6.37
2023-02-17T19:32:42.331Z,6.40
2023-02-17T19:35:11.483Z,5.87
2023-02-17T19:37:38.343Z,6.85
2023-02-17T19:40:05.704Z,6.47
2023-02-17T19:42:32.541Z,6.33
2023-02-17T19:44:59.130Z,7.47
2023-02-17T19:47:26.747Z,6.57
2023-02-17T19:49:53.518Z,7.00
2023-02-17T19:52:21.338Z,6.43
2023-02-17T19:54:50.187Z,6.67
2023-02-17T19:57:18.430Z,7.57
2023-02-17T19:59:45.989Z,6.77
2023-02-17T20:02:14.551Z,7.47
2023-02-17T20:04:42.064Z,7.67
2023-02-17T20:07:08.812Z,8.20
2023-02-17T20:09:35.723Z,7.77
2023-02-17T20:12:03.894Z,7.93
2023-02-17T20:14:30.499Z,6.87
2023-02-17T20:16:57.128Z,7.57
2023-02-17T20:19:23.750Z,7.97
2023-02-17T20:21:50.385Z,7.90
2023-02-17T20:24:17.124Z,7.87
2023-02-17T20:26:46.350Z,8.00
2023-02-17T20:29:14.131Z,7.93
2023-02-17T20:31:41.981Z,9.07
2023-02-17T20:34:20.879Z,8.60
2023-02-17T20:36:47.438Z,8.27
2023-02-17T20:39:14.498Z,10.60
2023-02-17T20:41:41.209Z,11.17
2023-02-17T20:44:09.995Z,10.73
2023-02-17T20:46:36.891Z,10.83
2023-02-17T20:49:03.683Z,9.70
2023-02-17T20:51:30.299Z,8.60
2023-02-17T20:53:56.873Z,8.53
2023-02-17T20:56:24.740Z,8.80
2023-02-17T20:58:52.635Z,8.70
2023-02-17T21:01:19.818Z,9.23
2023-02-17T21:03:47.044Z,8.37
2023-02-17T21:06:27.362Z,7.23
2023-02-17T21:09:02.585Z,7.87
2023-02-17T21:11:30.421Z,8.03
2023-02-17T21:13:57.234Z,7.70
2023-02-17T21:16:27.703Z,6.80
2023-02-17T21:18:54.476Z,7.27
2023-02-17T21:21:21.297Z,7.03
2023-02-17T21:23:48.209Z,7.27
2023-02-17T21:26:15.332Z,7.43
2023-02-17T21:28:42.145Z,6.90
2023-02-17T21:31:09.033Z,6.60
2023-02-17T21:33:41.974Z,6.47
2023-02-17T21:36:14.405Z,6.40
2023-02-17T21:38:40.987Z,7.40
2023-02-17T21:41:13.694Z,6.13
2023-02-17T21:43:59.885Z,6.80
2023-02-17T21:46:27.074Z,6.97
2023-02-17T21:48:55.996Z,7.37
2023-02-17T21:51:22.967Z,8.90
2023-02-17T21:53:52.886Z,6.83
2023-02-17T21:56:22.158Z,10.88
2023-02-17T21:58:50.923Z,7.22
2023-02-17T22:01:18.898Z,7.57
2023-02-17T22:03:45.508Z,7.27
2023-02-17T22:06:13.651Z,7.37
2023-02-17T22:08:40.269Z,7.60
2023-02-17T22:11:12.565Z,7.30
2023-02-17T22:13:39.198Z,6.83
2023-02-17T22:16:06.501Z,8.67
2023-02-17T22:18:33.301Z,6.83
2023-02-17T22:20:59.917Z,6.83
2023-02-17T22:23:27.493Z,7.07
2023-02-17T22:25:54.040Z,6.67
2023-02-17T22:28:21.840Z,6.93
2023-02-17T22:30:52.919Z,7.20
2023-02-17T22:33:19.666Z,7.00
2023-02-17T22:35:46.197Z,6.50
2023-02-17T22:38:12.784Z,6.40
2023-02-17T22:40:40.964Z,6.53
2023-02-17T22:43:07.533Z,6.20
2023-02-17T22:45:34.211Z,5.97
2023-02-17T22:48:00.865Z,6.20
2023-02-17T22:50:27.498Z,6.63
2023-02-17T22:52:54.094Z,6.40
2023-02-17T22:55:20.658Z,6.40
2023-02-17T22:57:47.860Z,7.57
2023-02-17T23:00:15.217Z,9.73
2023-02-17T23:02:41.818Z,6.67
2023-02-17T23:05:08.713Z,6.40
2023-02-17T23:07:35.347Z,9.67
2023-02-17T23:10:02.339Z,5.90
2023-02-17T23:12:30.023Z,6.30
2023-02-17T23:14:56.669Z,6.47
2023-02-17T23:17:23.324Z,6.13
2023-02-17T23:19:51.316Z,5.60
2023-02-17T23:22:19.166Z,5.53
2023-02-17T23:24:47.640Z,5.50
2023-02-17T23:27:27.516Z,4.87
2023-02-17T23:29:54.121Z,4.95
2023-02-17T23:32:20.722Z,5.20
2023-02-17T23:34:47.437Z,5.20
2023-02-17T23:37:14.042Z,5.70
2023-02-17T23:39:40.659Z,5.50
2023-02-17T23:42:08.334Z,5.30
2023-02-17T23:44:34.938Z,4.90
2023-02-17T23:47:02.545Z,5.13
2023-02-17T23:49:30.272Z,4.80
2023-02-17T23:51:56.794Z,4.70
2023-02-17T23:54:25.126Z,4.63
2023-02-17T23:56:51.715Z,4.37
2023-02-17T23:59:18.388Z,4.43
